createdAt,value
2019-04-16T00:00:57.902Z,9.66
2019-04-16T00:01:57.922Z,9.73
2019-04-16T00:02:57.936Z,9.61
2019-04-16T00:03:57.950Z,9.59
2019-04-16T00:04:57.969Z,9.66
2019-04-16T00:05:58.921Z,9.72
2019-04-16T00:06:58.006Z,9.69
2019-04-16T00:07:58.018Z,9.66
2019-04-16T00:08:58.364Z,9.61
2019-04-16T00:09:58.051Z,9.56
2019-04-16T00:10:58.071Z,9.61
2019-04-16T00:11:58.083Z,9.55
2019-04-16T00:12:58.101Z,9.56
2019-04-16T00:13:58.117Z,9.58
2019-04-16T00:14:58.134Z,9.54
2019-04-16T00:15:58.151Z,9.55
2019-04-16T00:16:58.165Z,9.56
2019-04-16T00:17:58.183Z,9.51
2019-04-16T00:19:04.419Z,9.46
2019-04-16T00:19:58.222Z,9.44
2019-04-16T00:20:58.264Z,9.47
2019-04-16T00:21:58.251Z,9.47
2019-04-16T00:22:58.266Z,9.51
2019-04-16T00:23:58.384Z,9.47
2019-04-16T00:24:58.455Z,9.43
2019-04-16T00:25:58.498Z,9.40
2019-04-16T00:26:59.874Z,9.43
2019-04-16T00:27:59.912Z,9.37
2019-04-16T00:29:01.580Z,9.43
2019-04-16T00:29:58.547Z,9.44
2019-04-16T00:30:58.398Z,9.43
2019-04-16T00:31:58.415Z,9.51
2019-04-16T00:32:58.437Z,9.47
2019-04-16T00:33:58.451Z,9.41
2019-04-16T00:34:58.462Z,9.36
2019-04-16T00:35:58.489Z,9.32
2019-04-16T00:36:58.503Z,9.34
2019-04-16T00:37:58.514Z,9.44
2019-04-16T00:38:58.528Z,9.31
2019-04-16T00:39:58.621Z,9.41
2019-04-16T00:41:01.339Z,9.40
2019-04-16T00:41:58.578Z,9.36
2019-04-16T00:42:58.596Z,9.39
2019-04-16T00:43:58.612Z,9.37
2019-04-16T00:44:58.629Z,9.26
2019-04-16T00:45:58.643Z,9.36
2019-04-16T00:46:58.661Z,9.26
2019-04-16T00:47:58.676Z,9.28
2019-04-16T00:48:58.694Z,9.26
2019-04-16T00:49:59.543Z,9.22
2019-04-16T00:50:58.730Z,9.26
2019-04-16T00:51:58.744Z,9.22
2019-04-16T00:52:58.759Z,9.25
2019-04-16T00:53:58.907Z,9.11
2019-04-16T00:54:58.903Z,9.14
2019-04-16T00:55:58.912Z,9.14
2019-04-16T00:56:58.825Z,9.14
2019-04-16T00:57:58.841Z,9.14
2019-04-16T00:58:58.856Z,9.16
2019-04-16T00:59:58.881Z,9.14
2019-04-16T01:00:58.896Z,9.11
2019-04-16T01:01:58.906Z,9.08
2019-04-16T01:02:58.927Z,9.13
2019-04-16T01:03:58.946Z,9.11
2019-04-16T01:04:58.953Z,9.13
2019-04-16T01:05:58.972Z,9.11
2019-04-16T01:06:58.985Z,9.10
2019-04-16T01:07:59.008Z,8.99
2019-04-16T01:08:59.018Z,9.06
2019-04-16T01:09:59.039Z,9.06
2019-04-16T01:10:59.056Z,9.02
2019-04-16T01:11:59.067Z,9.02
2019-04-16T01:12:59.086Z,8.97
2019-04-16T01:13:59.102Z,8.95
2019-04-16T01:15:00.965Z,8.95
2019-04-16T01:16:02.457Z,9.02
2019-04-16T01:17:04.066Z,8.89
2019-04-16T01:17:59.202Z,8.89
2019-04-16T01:18:59.183Z,8.94
2019-04-16T01:19:59.198Z,8.87
2019-04-16T01:20:59.214Z,8.87
2019-04-16T01:21:59.230Z,8.82
2019-04-16T01:22:59.248Z,8.84
2019-04-16T01:23:59.265Z,8.85
2019-04-16T01:24:59.287Z,8.76
2019-04-16T01:25:59.360Z,8.82
2019-04-16T01:26:59.501Z,8.87
2019-04-16T01:28:00.776Z,8.81
2019-04-16T01:29:02.765Z,8.85
2019-04-16T01:29:59.587Z,8.88
2019-04-16T01:30:59.626Z,8.76
2019-04-16T01:31:59.401Z,8.84
2019-04-16T01:32:59.410Z,8.82
2019-04-16T01:33:59.426Z,8.82
2019-04-16T01:34:59.439Z,8.88
2019-04-16T01:35:59.459Z,8.81
2019-04-16T01:36:59.474Z,8.78
2019-04-16T01:37:59.493Z,8.70
2019-04-16T01:39:14.777Z,8.73
2019-04-16T01:39:59.523Z,8.74
2019-04-16T01:40:59.709Z,8.81
2019-04-16T01:41:59.716Z,8.82
2019-04-16T01:42:59.569Z,8.73
2019-04-16T01:43:59.587Z,8.78
2019-04-16T01:45:00.686Z,8.76
2019-04-16T01:46:01.450Z,8.73
2019-04-16T01:47:03.363Z,8.70
2019-04-16T01:47:59.651Z,8.76
2019-04-16T01:48:59.665Z,8.67
2019-04-16T01:49:59.682Z,8.64
2019-04-16T01:50:59.699Z,8.64
2019-04-16T01:51:59.718Z,8.69
2019-04-16T01:52:59.731Z,8.69
2019-04-16T01:53:59.744Z,8.66
2019-04-16T01:54:59.764Z,8.61
2019-04-16T01:55:59.778Z,8.58
2019-04-16T01:57:00.796Z,8.53
2019-04-16T01:58:02.728Z,8.55
2019-04-16T01:59:04.589Z,8.52
2019-04-16T01:59:59.845Z,8.48
2019-04-16T02:00:59.857Z,8.49
2019-04-16T02:01:59.876Z,8.55
2019-04-16T02:02:59.894Z,8.55
2019-04-16T02:03:59.908Z,8.55
2019-04-16T02:04:59.928Z,8.55
2019-04-16T02:05:59.939Z,8.52
2019-04-16T02:06:59.956Z,8.52
2019-04-16T02:08:00.389Z,8.46
2019-04-16T02:09:02.781Z,8.51
2019-04-16T02:10:00.001Z,8.49
2019-04-16T02:11:00.027Z,8.46
2019-04-16T02:12:00.050Z,8.46
2019-04-16T02:13:00.052Z,8.48
2019-04-16T02:14:00.069Z,8.45
2019-04-16T02:15:00.088Z,8.46
2019-04-16T02:16:00.102Z,8.51
2019-04-16T02:17:00.114Z,8.48
2019-04-16T02:18:00.291Z,8.38
2019-04-16T02:19:01.273Z,8.36
2019-04-16T02:20:02.079Z,8.37
2019-04-16T02:21:00.179Z,8.38
2019-04-16T02:22:00.192Z,8.37
2019-04-16T02:23:00.217Z,8.37
2019-04-16T02:24:00.226Z,8.28
2019-04-16T02:25:00.239Z,8.30
2019-04-16T02:26:00.255Z,8.37
2019-04-16T02:27:00.270Z,8.31
2019-04-16T02:28:00.293Z,8.37
2019-04-16T02:29:00.303Z,8.30
2019-04-16T02:30:02.947Z,8.28
2019-04-16T02:31:00.594Z,8.27
2019-04-16T02:32:00.381Z,8.33
2019-04-16T02:33:00.592Z,8.23
2019-04-16T02:34:00.760Z,8.33
2019-04-16T02:35:00.737Z,8.24
2019-04-16T02:36:00.612Z,8.30
2019-04-16T02:37:02.446Z,8.28
2019-04-16T02:38:00.688Z,8.19
2019-04-16T02:39:00.487Z,8.23
2019-04-16T02:40:00.846Z,8.27
2019-04-16T02:41:00.506Z,8.28
2019-04-16T02:42:00.882Z,8.26
2019-04-16T02:43:06.548Z,8.30
2019-04-16T02:44:00.880Z,8.18
2019-04-16T02:45:00.564Z,8.15
2019-04-16T02:46:00.593Z,8.19
2019-04-16T02:47:05.385Z,8.27
2019-04-16T02:48:00.785Z,8.16
2019-04-16T02:49:00.629Z,8.19
2019-04-16T02:50:01.254Z,8.23
2019-04-16T02:51:05.297Z,8.15
2019-04-16T02:52:00.782Z,8.20
2019-04-16T02:53:00.685Z,8.13
2019-04-16T02:54:00.700Z,8.18
2019-04-16T02:55:08.023Z,8.26
2019-04-16T02:56:00.732Z,8.23
2019-04-16T02:57:00.746Z,8.18
2019-04-16T02:58:01.859Z,8.18
2019-04-16T02:59:10.096Z,8.20
2019-04-16T03:00:00.802Z,8.20
2019-04-16T03:01:00.818Z,8.19
2019-04-16T03:02:00.825Z,8.20
2019-04-16T03:03:00.848Z,8.23
2019-04-16T03:04:00.857Z,8.12
2019-04-16T03:05:00.874Z,8.18
2019-04-16T03:06:01.620Z,8.09
2019-04-16T03:07:03.404Z,8.13
2019-04-16T03:08:01.503Z,8.13
2019-04-16T03:09:00.943Z,8.16
2019-04-16T03:10:01.970Z,8.23
2019-04-16T03:11:00.967Z,8.12
2019-04-16T03:12:00.986Z,8.15
2019-04-16T03:13:00.998Z,8.16
2019-04-16T03:14:01.015Z,8.10
2019-04-16T03:15:02.039Z,8.15
2019-04-16T03:16:02.789Z,8.16
2019-04-16T03:17:01.066Z,8.16
2019-04-16T03:18:01.078Z,8.12
2019-04-16T03:19:01.104Z,8.12
2019-04-16T03:20:01.109Z,8.09
2019-04-16T03:21:01.136Z,8.08
2019-04-16T03:22:02.273Z,8.13
2019-04-16T03:23:05.104Z,8.12
2019-04-16T03:24:01.177Z,8.00
2019-04-16T03:25:01.197Z,8.08
2019-04-16T03:26:01.205Z,8.03
2019-04-16T03:27:04.481Z,8.05
2019-04-16T03:28:01.238Z,8.05
2019-04-16T03:29:01.253Z,8.08
2019-04-16T03:30:03.359Z,8.09
2019-04-16T03:31:01.292Z,8.05
2019-04-16T03:32:01.298Z,8.06
2019-04-16T03:33:10.138Z,8.03
2019-04-16T03:34:01.330Z,7.98
2019-04-16T03:35:01.350Z,8.01
2019-04-16T03:36:01.368Z,8.05
2019-04-16T03:37:01.891Z,8.05
2019-04-16T03:38:01.620Z,8.05
2019-04-16T03:39:01.415Z,8.00
2019-04-16T03:40:14.436Z,8.01
2019-04-16T03:41:01.441Z,8.03
2019-04-16T03:42:01.456Z,8.08
2019-04-16T03:43:04.001Z,8.09
2019-04-16T03:44:04.098Z,7.98
2019-04-16T03:45:01.510Z,8.01
2019-04-16T03:46:01.515Z,8.00
2019-04-16T03:47:01.534Z,7.91
2019-04-16T03:48:01.551Z,7.98
2019-04-16T03:49:01.566Z,7.98
2019-04-16T03:50:01.580Z,7.95
2019-04-16T03:51:03.596Z,7.93
2019-04-16T03:52:04.800Z,7.88
2019-04-16T03:53:01.628Z,7.91
2019-04-16T03:54:04.784Z,7.95
2019-04-16T03:55:01.664Z,7.93
2019-04-16T03:56:01.673Z,7.90
2019-04-16T03:57:02.792Z,7.85
2019-04-16T03:58:05.083Z,7.87
2019-04-16T03:59:01.722Z,7.77
2019-04-16T04:00:01.734Z,7.80
2019-04-16T04:01:01.753Z,7.85
2019-04-16T04:02:01.774Z,7.88
2019-04-16T04:03:01.785Z,7.77
2019-04-16T04:04:01.806Z,7.73
2019-04-16T04:05:06.389Z,7.83
2019-04-16T04:06:03.595Z,7.72
2019-04-16T04:07:01.846Z,7.79
2019-04-16T04:08:01.859Z,7.69
2019-04-16T04:09:01.877Z,7.76
2019-04-16T04:10:01.892Z,7.70
2019-04-16T04:11:01.909Z,7.72
2019-04-16T04:12:01.927Z,7.72
2019-04-16T04:13:04.752Z,7.61
2019-04-16T04:14:01.958Z,7.61
2019-04-16T04:15:01.970Z,7.50
2019-04-16T04:16:02.291Z,7.57
2019-04-16T04:17:05.438Z,7.50
2019-04-16T04:18:02.015Z,7.47
2019-04-16T04:19:02.033Z,7.47
2019-04-16T04:20:02.047Z,7.47
2019-04-16T04:21:02.061Z,7.39
2019-04-16T04:22:02.086Z,7.39
2019-04-16T04:23:02.099Z,7.47
2019-04-16T04:24:02.112Z,7.36
2019-04-16T04:25:04.342Z,7.38
2019-04-16T04:26:02.147Z,7.40
2019-04-16T04:27:02.157Z,7.36
2019-04-16T04:28:02.173Z,7.39
2019-04-16T04:29:02.185Z,7.39
2019-04-16T04:30:02.205Z,7.32
2019-04-16T04:31:02.217Z,7.38
2019-04-16T04:32:03.364Z,7.32
2019-04-16T04:33:07.667Z,7.32
2019-04-16T04:34:02.265Z,7.29
2019-04-16T04:35:02.280Z,7.25
2019-04-16T04:36:02.296Z,7.33
2019-04-16T04:37:02.308Z,7.29
2019-04-16T04:38:03.956Z,7.33
2019-04-16T04:39:02.345Z,7.31
2019-04-16T04:40:02.356Z,7.20
2019-04-16T04:41:02.370Z,7.24
2019-04-16T04:42:02.386Z,7.20
2019-04-16T04:43:02.404Z,7.20
2019-04-16T04:44:04.364Z,7.25
2019-04-16T04:45:02.438Z,7.25
2019-04-16T04:46:02.447Z,7.23
2019-04-16T04:47:02.463Z,7.20
2019-04-16T04:48:02.491Z,7.21
2019-04-16T04:49:02.499Z,7.20
2019-04-16T04:50:03.297Z,7.21
2019-04-16T04:51:06.724Z,7.20
2019-04-16T04:52:02.550Z,7.23
2019-04-16T04:53:02.556Z,7.21
2019-04-16T04:54:02.574Z,7.15
2019-04-16T04:55:02.585Z,7.21
2019-04-16T04:56:02.603Z,7.07
2019-04-16T04:57:02.615Z,7.17
2019-04-16T04:58:03.444Z,7.05
2019-04-16T04:59:05.221Z,7.02
2019-04-16T05:00:02.660Z,7.02
2019-04-16T05:01:02.678Z,7.17
2019-04-16T05:02:02.692Z,7.03
2019-04-16T05:03:02.749Z,7.14
2019-04-16T05:04:02.726Z,7.18
2019-04-16T05:05:02.741Z,7.14
2019-04-16T05:06:02.756Z,7.07
2019-04-16T05:07:04.766Z,7.17
2019-04-16T05:08:02.786Z,7.18
2019-04-16T05:09:02.798Z,7.21
2019-04-16T05:10:04.614Z,7.20
2019-04-16T05:11:03.118Z,7.20
2019-04-16T05:12:02.851Z,7.11
2019-04-16T05:13:02.862Z,7.15
2019-04-16T05:14:02.880Z,7.18
2019-04-16T05:15:03.971Z,7.17
2019-04-16T05:16:02.910Z,7.10
2019-04-16T05:17:03.624Z,7.06
2019-04-16T05:18:05.661Z,7.07
2019-04-16T05:19:02.956Z,7.03
2019-04-16T05:20:02.978Z,7.15
2019-04-16T05:21:02.989Z,7.20
2019-04-16T05:22:03.001Z,7.31
2019-04-16T05:23:03.013Z,7.31
2019-04-16T05:24:03.035Z,7.38
2019-04-16T05:25:03.050Z,7.40
2019-04-16T05:26:04.801Z,7.36
2019-04-16T05:27:05.461Z,7.39
2019-04-16T05:28:03.100Z,7.33
2019-04-16T05:29:03.114Z,7.39
2019-04-16T05:30:03.129Z,7.40
2019-04-16T05:31:03.143Z,7.25
2019-04-16T05:32:03.153Z,7.36
2019-04-16T05:33:05.545Z,7.32
2019-04-16T05:34:06.036Z,7.33
2019-04-16T05:35:03.202Z,7.29
2019-04-16T05:36:03.215Z,7.25
2019-04-16T05:37:03.239Z,7.31
2019-04-16T05:38:03.251Z,7.29
2019-04-16T05:39:03.798Z,7.28
2019-04-16T05:40:03.280Z,7.31
2019-04-16T05:41:13.187Z,7.36
2019-04-16T05:42:03.308Z,7.42
2019-04-16T05:43:03.330Z,7.45
2019-04-16T05:44:03.341Z,7.48
2019-04-16T05:45:05.651Z,7.50
2019-04-16T05:46:08.297Z,7.50
2019-04-16T05:47:03.394Z,7.42
2019-04-16T05:48:03.401Z,7.38
2019-04-16T05:49:03.417Z,7.40
2019-04-16T05:50:03.434Z,7.47
2019-04-16T05:51:03.460Z,7.54
2019-04-16T05:52:04.167Z,7.51
2019-04-16T05:53:05.492Z,7.45
2019-04-16T05:54:03.497Z,7.45
2019-04-16T05:55:03.547Z,7.53
2019-04-16T05:56:03.529Z,7.54
2019-04-16T05:57:03.543Z,7.66
2019-04-16T05:58:03.557Z,7.66
2019-04-16T05:59:03.583Z,7.69
2019-04-16T06:00:09.264Z,7.63
2019-04-16T06:01:03.602Z,7.66
2019-04-16T06:02:03.619Z,7.83
2019-04-16T06:03:03.636Z,7.77
2019-04-16T06:04:03.653Z,7.77
2019-04-16T06:05:03.668Z,7.82
2019-04-16T06:06:03.688Z,7.61
2019-04-16T06:07:07.553Z,7.73
2019-04-16T06:08:06.343Z,7.85
2019-04-16T06:09:03.731Z,7.82
2019-04-16T06:10:06.795Z,7.91
2019-04-16T06:11:03.759Z,7.87
2019-04-16T06:12:05.808Z,7.98
2019-04-16T06:13:03.792Z,7.94
2019-04-16T06:14:03.808Z,7.91
2019-04-16T06:15:03.821Z,8.00
2019-04-16T06:16:03.837Z,8.03
2019-04-16T06:17:03.854Z,8.03
2019-04-16T06:18:05.418Z,7.98
2019-04-16T06:19:03.887Z,7.97
2019-04-16T06:20:03.903Z,8.01
2019-04-16T06:21:03.918Z,8.08
2019-04-16T06:22:03.940Z,8.10
2019-04-16T06:23:03.949Z,8.15
2019-04-16T06:24:04.236Z,8.15
2019-04-16T06:25:08.175Z,8.19
2019-04-16T06:26:04.030Z,8.24
2019-04-16T06:27:04.013Z,8.26
2019-04-16T06:28:04.026Z,8.23
2019-04-16T06:29:04.044Z,8.33
2019-04-16T06:30:04.062Z,8.31
2019-04-16T06:31:05.637Z,8.38
2019-04-16T06:32:04.107Z,8.38
2019-04-16T06:33:04.109Z,8.52
2019-04-16T06:34:04.192Z,8.42
2019-04-16T06:35:04.138Z,8.45
2019-04-16T06:36:04.156Z,8.52
2019-04-16T06:37:04.177Z,8.61
2019-04-16T06:38:04.189Z,8.69
2019-04-16T06:39:04.204Z,8.69
2019-04-16T06:40:04.217Z,8.73
2019-04-16T06:41:04.334Z,8.70
2019-04-16T06:42:04.249Z,8.78
2019-04-16T06:43:04.319Z,8.74
2019-04-16T06:44:04.363Z,8.76
2019-04-16T06:45:04.851Z,8.76
2019-04-16T06:46:05.474Z,8.87
2019-04-16T06:47:04.329Z,8.97
2019-04-16T06:48:04.347Z,8.99
2019-04-16T06:49:04.361Z,8.97
2019-04-16T06:50:04.377Z,9.00
2019-04-16T06:51:04.395Z,9.00
2019-04-16T06:52:04.417Z,9.10
2019-04-16T06:53:04.428Z,9.13
2019-04-16T06:54:04.444Z,9.14
2019-04-16T06:55:04.468Z,9.22
2019-04-16T06:56:05.477Z,9.29
2019-04-16T06:57:04.688Z,9.26
2019-04-16T06:58:04.509Z,9.34
2019-04-16T06:59:04.553Z,9.31
2019-04-16T07:00:07.142Z,9.44
2019-04-16T07:01:06.750Z,9.43
2019-04-16T07:02:04.581Z,9.41
2019-04-16T07:03:04.593Z,9.41
2019-04-16T07:04:06.759Z,9.47
2019-04-16T07:05:04.624Z,9.46
2019-04-16T07:06:06.142Z,9.61
2019-04-16T07:07:08.060Z,9.56
2019-04-16T07:08:04.671Z,9.64
2019-04-16T07:09:04.692Z,9.58
2019-04-16T07:10:04.704Z,9.68
2019-04-16T07:11:04.723Z,9.66
2019-04-16T07:12:04.743Z,9.76
2019-04-16T07:13:10.155Z,9.66
2019-04-16T07:14:05.415Z,9.66
2019-04-16T07:15:04.790Z,9.76
2019-04-16T07:16:04.805Z,9.82
2019-04-16T07:17:04.820Z,9.94
2019-04-16T07:18:05.429Z,9.95
2019-04-16T07:19:10.165Z,10.09
2019-04-16T07:20:05.080Z,9.97
2019-04-16T07:21:04.894Z,9.99
2019-04-16T07:22:04.903Z,10.04
2019-04-16T07:23:04.920Z,10.10
2019-04-16T07:24:05.037Z,10.16
2019-04-16T07:25:05.735Z,10.25
2019-04-16T07:26:05.049Z,10.23
2019-04-16T07:27:04.991Z,10.33
2019-04-16T07:28:05.008Z,10.37
2019-04-16T07:29:05.138Z,10.33
2019-04-16T07:30:07.668Z,10.31
2019-04-16T07:31:05.347Z,10.38
2019-04-16T07:32:05.514Z,10.49
2019-04-16T07:33:05.089Z,10.46
2019-04-16T07:34:05.107Z,10.59
2019-04-16T07:35:05.125Z,10.64
2019-04-16T07:36:05.275Z,10.64
2019-04-16T07:37:05.161Z,10.64
2019-04-16T07:38:06.460Z,10.71
2019-04-16T07:39:06.215Z,10.74
2019-04-16T07:40:08.684Z,10.89
2019-04-16T07:41:05.224Z,10.90
2019-04-16T07:42:10.768Z,10.97
2019-04-16T07:43:05.258Z,10.94
2019-04-16T07:44:10.235Z,10.78
2019-04-16T07:45:05.294Z,10.89
2019-04-16T07:46:05.312Z,10.97
2019-04-16T07:47:05.328Z,11.05
2019-04-16T07:48:06.855Z,11.08
2019-04-16T07:49:05.365Z,11.15
2019-04-16T07:50:05.381Z,11.18
2019-04-16T07:51:05.560Z,11.17
2019-04-16T07:52:07.795Z,11.27
2019-04-16T07:53:05.432Z,11.26
2019-04-16T07:54:05.449Z,11.26
2019-04-16T07:55:05.467Z,11.36
2019-04-16T07:56:05.485Z,11.37
2019-04-16T07:57:05.569Z,11.45
2019-04-16T07:58:05.519Z,11.51
2019-04-16T07:59:05.534Z,11.44
2019-04-16T08:00:08.567Z,11.60
2019-04-16T08:01:05.569Z,11.57
2019-04-16T08:02:05.587Z,11.65
2019-04-16T08:03:05.622Z,11.70
2019-04-16T08:04:05.643Z,11.63
2019-04-16T08:05:08.706Z,11.51
2019-04-16T08:06:05.658Z,11.62
2019-04-16T08:07:05.953Z,11.73
2019-04-16T08:08:05.692Z,11.80
2019-04-16T08:09:05.717Z,11.88
2019-04-16T08:10:05.743Z,11.84
2019-04-16T08:11:05.749Z,11.78
2019-04-16T08:12:10.762Z,11.84
2019-04-16T08:13:05.782Z,11.95
2019-04-16T08:14:08.598Z,11.84
2019-04-16T08:15:13.762Z,11.91
2019-04-16T08:16:05.837Z,12.10
2019-04-16T08:17:05.855Z,12.10
2019-04-16T08:18:05.873Z,12.10
2019-04-16T08:19:05.891Z,12.17
2019-04-16T08:20:05.912Z,12.27
2019-04-16T08:21:10.724Z,12.27
2019-04-16T08:22:05.992Z,12.28
2019-04-16T08:23:05.986Z,12.31
2019-04-16T08:24:05.982Z,12.35
2019-04-16T08:25:06.001Z,12.50
2019-04-16T08:26:11.411Z,12.54
2019-04-16T08:27:09.471Z,12.54
2019-04-16T08:28:07.575Z,12.39
2019-04-16T08:29:06.078Z,12.62
2019-04-16T08:30:06.133Z,12.75
2019-04-16T08:31:10.683Z,12.78
2019-04-16T08:32:06.127Z,12.83
2019-04-16T08:33:06.145Z,12.78
2019-04-16T08:34:06.161Z,12.78
2019-04-16T08:35:06.423Z,12.86
2019-04-16T08:36:06.198Z,12.94
2019-04-16T08:37:08.504Z,12.85
2019-04-16T08:38:06.235Z,12.91
2019-04-16T08:39:07.512Z,12.98
2019-04-16T08:40:08.810Z,12.80
2019-04-16T08:41:06.289Z,12.98
2019-04-16T08:42:06.310Z,13.03
2019-04-16T08:43:06.533Z,13.12
2019-04-16T08:44:09.614Z,13.20
2019-04-16T08:45:08.728Z,13.31
2019-04-16T08:46:10.227Z,13.19
2019-04-16T08:47:11.613Z,13.23
2019-04-16T08:48:09.007Z,13.25
2019-04-16T08:49:06.437Z,13.23
2019-04-16T08:50:06.458Z,13.49
2019-04-16T08:51:06.479Z,13.47
2019-04-16T08:52:09.899Z,13.47
2019-04-16T08:53:06.513Z,13.52
2019-04-16T08:54:06.536Z,13.62
2019-04-16T08:55:06.550Z,13.56
2019-04-16T08:56:06.572Z,13.56
2019-04-16T08:57:06.589Z,13.63
2019-04-16T08:58:07.523Z,13.62
2019-04-16T08:59:09.496Z,13.52
2019-04-16T09:00:06.863Z,13.60
2019-04-16T09:01:06.667Z,13.65
2019-04-16T09:02:06.683Z,13.37
2019-04-16T09:03:06.795Z,13.25
2019-04-16T09:04:06.724Z,13.46
2019-04-16T09:05:11.048Z,13.56
2019-04-16T09:06:06.765Z,13.68
2019-04-16T09:07:12.070Z,13.90
2019-04-16T09:08:12.882Z,14.00
2019-04-16T09:09:13.517Z,13.92
2019-04-16T09:10:17.135Z,13.86
2019-04-16T09:11:06.859Z,13.89
2019-04-16T09:12:09.137Z,14.04
2019-04-16T09:13:06.913Z,13.96
2019-04-16T09:14:06.913Z,13.93
2019-04-16T09:15:06.933Z,13.89
2019-04-16T09:16:10.293Z,14.03
2019-04-16T09:17:09.621Z,14.14
2019-04-16T09:18:06.991Z,13.95
2019-04-16T09:19:07.220Z,13.78
2019-04-16T09:20:07.029Z,13.83
2019-04-16T09:21:10.286Z,14.08
2019-04-16T09:22:07.069Z,14.18
2019-04-16T09:23:07.085Z,14.07
2019-04-16T09:24:09.404Z,14.00
2019-04-16T09:25:12.476Z,13.99
2019-04-16T09:26:13.969Z,13.89
2019-04-16T09:27:07.168Z,13.89
2019-04-16T09:28:09.913Z,13.87
2019-04-16T09:29:09.925Z,13.90
2019-04-16T09:30:10.238Z,13.79
2019-04-16T09:31:07.239Z,13.68
2019-04-16T09:32:07.396Z,13.75
2019-04-16T09:33:07.286Z,13.53
2019-04-16T09:34:07.302Z,13.59
2019-04-16T09:35:11.022Z,13.56
2019-04-16T09:36:07.338Z,13.78
2019-04-16T09:37:07.356Z,13.99
2019-04-16T09:38:09.415Z,14.14
2019-04-16T09:39:07.704Z,14.28
2019-04-16T09:40:16.512Z,14.35
2019-04-16T09:41:07.437Z,14.44
2019-04-16T09:42:07.460Z,14.36
2019-04-16T09:43:16.743Z,14.18
2019-04-16T09:44:07.491Z,14.30
2019-04-16T09:45:07.508Z,14.35
2019-04-16T09:46:11.007Z,14.40
2019-04-16T09:47:07.552Z,14.50
2019-04-16T09:48:07.569Z,14.77
2019-04-16T09:49:07.584Z,14.65
2019-04-16T09:50:11.197Z,14.44
2019-04-16T09:51:07.632Z,14.36
2019-04-16T09:52:07.646Z,14.53
2019-04-16T09:53:07.669Z,14.58
2019-04-16T09:54:12.436Z,14.72
2019-04-16T09:55:07.706Z,14.91
2019-04-16T09:56:07.730Z,15.00
2019-04-16T09:57:07.742Z,15.17
2019-04-16T09:58:07.768Z,15.06
2019-04-16T09:59:07.780Z,14.86
2019-04-16T10:00:08.380Z,14.72
2019-04-16T10:01:07.818Z,14.72
2019-04-16T10:02:07.840Z,14.89
2019-04-16T10:03:07.858Z,15.04
2019-04-16T10:04:07.878Z,15.17
2019-04-16T10:05:07.900Z,15.18
2019-04-16T10:06:07.937Z,15.17
2019-04-16T10:07:07.958Z,15.06
2019-04-16T10:08:09.576Z,15.21
2019-04-16T10:09:07.975Z,15.27
2019-04-16T10:10:08.006Z,15.49
2019-04-16T10:11:08.016Z,15.37
2019-04-16T10:12:08.677Z,15.40
2019-04-16T10:13:08.056Z,15.36
2019-04-16T10:14:08.077Z,15.42
2019-04-16T10:15:08.141Z,15.67
2019-04-16T10:16:08.129Z,15.68
2019-04-16T10:17:08.146Z,15.86
2019-04-16T10:18:08.171Z,15.95
2019-04-16T10:19:09.113Z,15.98
2019-04-16T10:20:08.204Z,15.90
2019-04-16T10:21:08.223Z,15.90
2019-04-16T10:22:08.249Z,15.98
2019-04-16T10:23:08.257Z,16.01
2019-04-16T10:24:08.323Z,16.08
2019-04-16T10:25:08.309Z,15.84
2019-04-16T10:26:08.327Z,15.95
2019-04-16T10:27:08.350Z,15.98
2019-04-16T10:28:08.360Z,16.15
2019-04-16T10:29:08.379Z,15.92
2019-04-16T10:30:08.407Z,15.65
2019-04-16T10:31:08.445Z,15.59
2019-04-16T10:32:08.439Z,15.65
2019-04-16T10:33:08.458Z,15.72
2019-04-16T10:34:08.490Z,15.77
2019-04-16T10:35:08.536Z,15.95
2019-04-16T10:36:08.527Z,15.95
2019-04-16T10:37:08.549Z,15.97
2019-04-16T10:38:08.569Z,16.00
2019-04-16T10:39:08.611Z,16.10
2019-04-16T10:40:08.608Z,16.21
2019-04-16T10:41:08.732Z,16.26
2019-04-16T10:42:08.641Z,16.36
2019-04-16T10:43:09.064Z,16.32
2019-04-16T10:44:08.689Z,16.33
2019-04-16T10:45:08.703Z,16.39
2019-04-16T10:46:09.836Z,16.43
2019-04-16T10:47:08.787Z,16.53
2019-04-16T10:48:08.768Z,16.61
2019-04-16T10:49:08.841Z,16.21
2019-04-16T10:50:08.804Z,16.02
2019-04-16T10:51:08.830Z,15.94
2019-04-16T10:52:08.877Z,16.21
2019-04-16T10:53:08.896Z,16.38
2019-04-16T10:54:08.912Z,16.38
2019-04-16T10:55:09.372Z,16.49
2019-04-16T10:56:08.936Z,16.38
2019-04-16T10:57:10.476Z,16.38
2019-04-16T10:58:08.972Z,16.42
2019-04-16T10:59:09.002Z,16.58
2019-04-16T11:00:09.014Z,16.60
2019-04-16T11:01:09.039Z,16.46
2019-04-16T11:02:10.680Z,16.31
2019-04-16T11:03:09.093Z,16.20
2019-04-16T11:04:09.114Z,16.20
2019-04-16T11:05:09.146Z,16.31
2019-04-16T11:06:09.300Z,16.47
2019-04-16T11:07:09.156Z,16.60
2019-04-16T11:08:09.196Z,16.53
2019-04-16T11:09:09.197Z,16.39
2019-04-16T11:10:11.764Z,16.46
2019-04-16T11:11:09.253Z,16.42
2019-04-16T11:12:09.259Z,16.53
2019-04-16T11:13:09.299Z,16.56
2019-04-16T11:14:09.299Z,16.60
2019-04-16T11:15:09.332Z,16.57
2019-04-16T11:16:09.390Z,16.58
2019-04-16T11:17:09.361Z,16.74
2019-04-16T11:18:09.523Z,16.90
2019-04-16T11:19:09.405Z,16.90
2019-04-16T11:20:09.682Z,16.94
2019-04-16T11:21:09.453Z,16.91
2019-04-16T11:22:09.478Z,16.94
2019-04-16T11:23:09.607Z,17.12
2019-04-16T11:24:09.597Z,17.05
2019-04-16T11:25:09.547Z,16.97
2019-04-16T11:26:09.547Z,16.94
2019-04-16T11:27:09.569Z,16.96
2019-04-16T11:28:09.616Z,17.02
2019-04-16T11:29:09.620Z,16.94
2019-04-16T11:30:09.669Z,17.12
2019-04-16T11:31:09.682Z,17.11
2019-04-16T11:32:09.751Z,17.19
2019-04-16T11:33:09.846Z,17.26
2019-04-16T11:34:09.969Z,17.16
2019-04-16T11:35:12.606Z,16.93
2019-04-16T11:36:18.604Z,16.91
2019-04-16T11:37:09.897Z,16.97
2019-04-16T11:38:09.838Z,17.11
2019-04-16T11:39:09.823Z,17.14
2019-04-16T11:40:09.888Z,17.22
2019-04-16T11:41:09.898Z,17.27
2019-04-16T11:42:09.891Z,17.42
2019-04-16T11:43:09.914Z,17.42
2019-04-16T11:44:15.577Z,17.38
2019-04-16T11:45:09.977Z,17.41
2019-04-16T11:46:09.974Z,17.59
2019-04-16T11:47:10.001Z,17.60
2019-04-16T11:48:10.059Z,17.56
2019-04-16T11:49:10.069Z,17.60
2019-04-16T11:50:10.094Z,17.27
2019-04-16T11:51:10.164Z,17.24
2019-04-16T11:52:10.129Z,17.19
2019-04-16T11:53:11.473Z,17.26
2019-04-16T11:54:11.836Z,17.26
2019-04-16T11:55:10.163Z,17.24
2019-04-16T11:56:10.216Z,17.36
2019-04-16T11:57:13.010Z,17.49
2019-04-16T11:58:10.281Z,17.59
2019-04-16T11:59:10.243Z,17.64
2019-04-16T12:00:10.304Z,17.82
2019-04-16T12:01:10.353Z,17.74
2019-04-16T12:02:10.363Z,17.76
2019-04-16T12:03:10.339Z,17.72
2019-04-16T12:04:10.905Z,17.90
2019-04-16T12:05:10.372Z,17.85
2019-04-16T12:06:10.466Z,18.03
2019-04-16T12:07:10.440Z,18.04
2019-04-16T12:08:10.483Z,17.86
2019-04-16T12:09:10.663Z,17.87
2019-04-16T12:10:10.507Z,17.98
2019-04-16T12:11:10.502Z,17.92
2019-04-16T12:12:10.699Z,17.94
2019-04-16T12:13:10.599Z,17.98
2019-04-16T12:14:10.748Z,18.05
2019-04-16T12:15:10.611Z,18.07
2019-04-16T12:16:10.667Z,18.05
2019-04-16T12:17:10.840Z,17.82
2019-04-16T12:18:10.652Z,17.97
2019-04-16T12:19:10.708Z,18.10
2019-04-16T12:20:10.808Z,18.05
2019-04-16T12:21:10.719Z,18.07
2019-04-16T12:22:10.792Z,18.04
2019-04-16T12:23:10.768Z,17.98
2019-04-16T12:24:10.783Z,18.07
2019-04-16T12:25:10.854Z,18.07
2019-04-16T12:26:10.875Z,18.03
2019-04-16T12:27:10.896Z,17.98
2019-04-16T12:28:12.591Z,18.03
2019-04-16T12:29:11.002Z,18.10
2019-04-16T12:30:10.939Z,18.11
2019-04-16T12:31:10.933Z,18.20
2019-04-16T12:32:10.975Z,18.33
2019-04-16T12:33:13.923Z,18.35
2019-04-16T12:34:11.064Z,18.34
2019-04-16T12:35:11.019Z,18.35
2019-04-16T12:36:14.098Z,18.31
2019-04-16T12:37:11.103Z,18.38
2019-04-16T12:38:12.745Z,18.23
2019-04-16T12:39:11.273Z,18.15
2019-04-16T12:40:11.149Z,18.20
2019-04-16T12:41:11.148Z,18.23
2019-04-16T12:42:11.171Z,18.23
2019-04-16T12:43:14.681Z,18.35
2019-04-16T12:44:11.230Z,18.35
2019-04-16T12:45:11.238Z,18.29
2019-04-16T12:46:11.278Z,18.43
2019-04-16T12:47:11.279Z,18.40
2019-04-16T12:48:11.336Z,18.45
2019-04-16T12:49:11.713Z,18.47
2019-04-16T12:50:11.393Z,18.49
2019-04-16T12:51:11.381Z,18.45
2019-04-16T12:52:15.594Z,18.44
2019-04-16T12:53:11.410Z,18.44
2019-04-16T12:54:11.450Z,18.49
2019-04-16T12:55:11.657Z,18.45
2019-04-16T12:56:11.503Z,18.41
2019-04-16T12:57:14.491Z,18.49
2019-04-16T12:58:11.518Z,18.43
2019-04-16T12:59:11.540Z,18.38
2019-04-16T13:00:11.747Z,18.34
2019-04-16T13:01:11.582Z,18.43
2019-04-16T13:02:13.659Z,18.50
2019-04-16T13:03:16.462Z,18.50
2019-04-16T13:04:11.648Z,18.58
2019-04-16T13:05:11.670Z,18.60
2019-04-16T13:06:11.711Z,18.65
2019-04-16T13:07:11.714Z,18.66